sensor_id;sensor_type;location;lat;lon;timestamp;pressure;altitude;pressure_sealevel;temperature;humidity
10060;BME280;5069;49.306;8.636;2022-08-21T00:02:17;100524.88;;;21.11;55.01
10060;BME280;5069;49.306;8.636;2022-08-21T00:05:19;100519.28;;;21.14;55.05
10060;BME280;5069;49.306;8.636;2022-08-21T00:08:21;100517.28;;;21.17;55.19
10060;BME280;5069;49.306;8.636;2022-08-21T00:11:22;100516.41;;;21.17;54.99
10060;BME280;5069;49.306;8.636;2022-08-21T00:14:24;100519.88;;;21.06;55.54
10060;BME280;5069;49.306;8.636;2022-08-21T00:17:26;100513.56;;;20.83;56.11
10060;BME280;5069;49.306;8.636;2022-08-21T00:20:28;100514.97;;;20.76;56.53
10060;BME280;5069;49.306;8.636;2022-08-21T00:23:29;100509.31;;;20.68;57.08
10060;BME280;5069;49.306;8.636;2022-08-21T00:26:31;100505.50;;;20.59;57.21
10060;BME280;5069;49.306;8.636;2022-08-21T00:29:33;100498.06;;;20.63;57.00
10060;BME280;5069;49.306;8.636;2022-08-21T00:32:36;100504.69;;;20.70;57.03
10060;BME280;5069;49.306;8.636;2022-08-21T00:35:40;100507.88;;;20.75;56.49
10060;BME280;5069;49.306;8.636;2022-08-21T00:38:42;100509.59;;;20.76;56.07
10060;BME280;5069;49.306;8.636;2022-08-21T00:41:45;100508.19;;;20.83;55.17
10060;BME280;5069;49.306;8.636;2022-08-21T00:44:48;100498.78;;;20.78;55.49
10060;BME280;5069;49.306;8.636;2022-08-21T00:47:51;100498.91;;;20.76;56.01
10060;BME280;5069;49.306;8.636;2022-08-21T00:51:07;100501.69;;;20.75;55.98
10060;BME280;5069;49.306;8.636;2022-08-21T00:54:10;100505.38;;;20.61;56.19
10060;BME280;5069;49.306;8.636;2022-08-21T00:57:24;100504.91;;;20.43;56.59
10060;BME280;5069;49.306;8.636;2022-08-21T01:00:31;100498.91;;;20.40;56.59
10060;BME280;5069;49.306;8.636;2022-08-21T01:03:34;100502.44;;;20.40;56.91
10060;BME280;5069;49.306;8.636;2022-08-21T01:06:36;100504.59;;;20.35;57.33
10060;BME280;5069;49.306;8.636;2022-08-21T01:09:39;100507.38;;;20.34;57.80
10060;BME280;5069;49.306;8.636;2022-08-21T01:12:41;100502.22;;;20.31;58.00
10060;BME280;5069;49.306;8.636;2022-08-21T01:15:47;100501.03;;;20.22;58.67
10060;BME280;5069;49.306;8.636;2022-08-21T01:18:50;100505.91;;;20.04;58.82
10060;BME280;5069;49.306;8.636;2022-08-21T01:21:52;100508.91;;;20.00;59.22
10060;BME280;5069;49.306;8.636;2022-08-21T01:24:54;100501.00;;;19.86;59.42
10060;BME280;5069;49.306;8.636;2022-08-21T01:27:56;100497.38;;;19.74;59.96
10060;BME280;5069;49.306;8.636;2022-08-21T01:31:01;100502.91;;;19.71;59.57
10060;BME280;5069;49.306;8.636;2022-08-21T01:34:04;100504.19;;;19.65;59.78
10060;BME280;5069;49.306;8.636;2022-08-21T01:37:06;100507.19;;;19.61;60.31
10060;BME280;5069;49.306;8.636;2022-08-21T01:40:08;100511.81;;;19.59;60.89
10060;BME280;5069;49.306;8.636;2022-08-21T01:43:10;100505.22;;;19.37;61.49
10060;BME280;5069;49.306;8.636;2022-08-21T01:46:12;100500.81;;;19.24;62.33
10060;BME280;5069;49.306;8.636;2022-08-21T01:49:14;100498.75;;;19.15;62.41
10060;BME280;5069;49.306;8.636;2022-08-21T01:52:16;100495.09;;;19.03;62.98
10060;BME280;5069;49.306;8.636;2022-08-21T01:55:19;100507.03;;;18.97;63.47
10060;BME280;5069;49.306;8.636;2022-08-21T01:58:21;100500.84;;;18.97;63.62
10060;BME280;5069;49.306;8.636;2022-08-21T02:01:23;100505.53;;;18.93;64.13
10060;BME280;5069;49.306;8.636;2022-08-21T02:04:24;100502.56;;;18.98;64.06
10060;BME280;5069;49.306;8.636;2022-08-21T02:07:26;100484.81;;;18.97;63.82
10060;BME280;5069;49.306;8.636;2022-08-21T02:10:30;100491.88;;;18.98;64.07
10060;BME280;5069;49.306;8.636;2022-08-21T02:13:32;100491.00;;;18.97;63.86
10060;BME280;5069;49.306;8.636;2022-08-21T02:16:33;100493.91;;;18.94;64.39
10060;BME280;5069;49.306;8.636;2022-08-21T02:19:37;100487.16;;;18.89;64.37
10060;BME280;5069;49.306;8.636;2022-08-21T02:22:41;100478.59;;;18.84;64.71
10060;BME280;5069;49.306;8.636;2022-08-21T02:25:42;100482.00;;;18.86;64.91
10060;BME280;5069;49.306;8.636;2022-08-21T02:28:44;100485.22;;;18.91;64.19
10060;BME280;5069;49.306;8.636;2022-08-21T02:31:45;100478.91;;;18.92;64.33
10060;BME280;5069;49.306;8.636;2022-08-21T02:34:47;100480.53;;;18.94;63.85
10060;BME280;5069;49.306;8.636;2022-08-21T02:37:55;100476.47;;;18.89;63.85
10060;BME280;5069;49.306;8.636;2022-08-21T02:40:57;100474.50;;;18.78;64.34
10060;BME280;5069;49.306;8.636;2022-08-21T02:43:58;100475.25;;;18.80;64.06
10060;BME280;5069;49.306;8.636;2022-08-21T02:47:00;100476.25;;;18.92;62.52
10060;BME280;5069;49.306;8.636;2022-08-21T02:50:02;100467.59;;;18.88;63.84
10060;BME280;5069;49.306;8.636;2022-08-21T02:53:04;100477.06;;;18.80;64.27
10060;BME280;5069;49.306;8.636;2022-08-21T02:56:10;100475.94;;;18.70;64.79
10060;BME280;5069;49.306;8.636;2022-08-21T02:59:11;100476.91;;;18.69;65.40
10060;BME280;5069;49.306;8.636;2022-08-21T03:02:13;100475.41;;;18.65;65.22
10060;BME280;5069;49.306;8.636;2022-08-21T03:05:17;100477.22;;;18.64;65.43
10060;BME280;5069;49.306;8.636;2022-08-21T03:08:19;100476.16;;;18.67;64.64
10060;BME280;5069;49.306;8.636;2022-08-21T03:11:21;100476.16;;;18.67;63.11
10060;BME280;5069;49.306;8.636;2022-08-21T03:14:22;100479.16;;;18.62;62.92
10060;BME280;5069;49.306;8.636;2022-08-21T03:17:24;100476.97;;;18.54;63.63
10060;BME280;5069;49.306;8.636;2022-08-21T03:20:30;100484.31;;;18.51;63.64
10060;BME280;5069;49.306;8.636;2022-08-21T03:23:33;100478.69;;;18.41;65.15
10060;BME280;5069;49.306;8.636;2022-08-21T03:26:35;100477.00;;;18.26;66.06
10060;BME280;5069;49.306;8.636;2022-08-21T03:29:40;100486.72;;;18.13;66.67
10060;BME280;5069;49.306;8.636;2022-08-21T03:32:42;100484.94;;;18.13;67.00
10060;BME280;5069;49.306;8.636;2022-08-21T03:35:45;100477.56;;;18.17;67.13
10060;BME280;5069;49.306;8.636;2022-08-21T03:38:48;100479.59;;;18.28;66.27
10060;BME280;5069;49.306;8.636;2022-08-21T03:41:49;100475.28;;;18.25;66.90
10060;BME280;5069;49.306;8.636;2022-08-21T03:44:51;100483.59;;;18.06;67.44
10060;BME280;5069;49.306;8.636;2022-08-21T03:48:01;100487.59;;;17.85;68.44
10060;BME280;5069;49.306;8.636;2022-08-21T03:51:03;100494.19;;;17.80;69.05
10060;BME280;5069;49.306;8.636;2022-08-21T03:54:04;100484.66;;;17.75;69.14
10060;BME280;5069;49.306;8.636;2022-08-21T03:57:07;100493.88;;;17.84;69.22
10060;BME280;5069;49.306;8.636;2022-08-21T04:00:10;100490.94;;;17.89;69.05
10060;BME280;5069;49.306;8.636;2022-08-21T04:03:13;100501.34;;;17.93;69.09
10060;BME280;5069;49.306;8.636;2022-08-21T04:06:14;100502.09;;;17.81;69.37
10060;BME280;5069;49.306;8.636;2022-08-21T04:09:18;100505.22;;;17.73;69.57
10060;BME280;5069;49.306;8.636;2022-08-21T04:12:20;100505.22;;;17.73;70.16
10060;BME280;5069;49.306;8.636;2022-08-21T04:15:24;100505.59;;;17.67;69.96
10060;BME280;5069;49.306;8.636;2022-08-21T04:18:26;100513.44;;;17.55;70.74
10060;BME280;5069;49.306;8.636;2022-08-21T04:21:27;100518.69;;;17.56;70.81
10060;BME280;5069;49.306;8.636;2022-08-21T04:24:29;100518.19;;;17.65;70.79
10060;BME280;5069;49.306;8.636;2022-08-21T04:27:31;100511.50;;;17.72;70.60
10060;BME280;5069;49.306;8.636;2022-08-21T04:30:32;100516.84;;;17.72;69.48
10060;BME280;5069;49.306;8.636;2022-08-21T04:33:34;100524.38;;;17.50;70.45
10060;BME280;5069;49.306;8.636;2022-08-21T04:36:35;100536.34;;;17.43;71.32
10060;BME280;5069;49.306;8.636;2022-08-21T04:39:37;100534.09;;;17.37;72.03
10060;BME280;5069;49.306;8.636;2022-08-21T04:43:05;100540.50;;;17.33;71.93
10060;BME280;5069;49.306;8.636;2022-08-21T04:46:05;100545.63;;;17.22;73.07
10060;BME280;5069;49.306;8.636;2022-08-21T04:49:07;100549.56;;;17.30;72.56
10060;BME280;5069;49.306;8.636;2022-08-21T04:52:09;100548.50;;;17.33;72.24
10060;BME280;5069;49.306;8.636;2022-08-21T04:55:11;100548.00;;;17.42;72.64
10060;BME280;5069;49.306;8.636;2022-08-21T04:58:15;100544.75;;;17.51;72.52
10060;BME280;5069;49.306;8.636;2022-08-21T05:01:20;100546.91;;;17.60;70.48
10060;BME280;5069;49.306;8.636;2022-08-21T05:04:25;100546.94;;;17.74;71.06
10060;BME280;5069;49.306;8.636;2022-08-21T05:07:29;100545.22;;;17.73;72.12
10060;BME280;5069;49.306;8.636;2022-08-21T05:10:43;100543.91;;;17.81;71.61
10060;BME280;5069;49.306;8.636;2022-08-21T05:13:45;100546.00;;;17.75;72.38
10060;BME280;5069;49.306;8.636;2022-08-21T05:16:55;100548.84;;;17.87;72.15
10060;BME280;5069;49.306;8.636;2022-08-21T05:19:56;100552.09;;;17.92;72.58
10060;BME280;5069;49.306;8.636;2022-08-21T05:22:58;100562.75;;;17.92;72.58
10060;BME280;5069;49.306;8.636;2022-08-21T05:26:00;100561.63;;;17.96;71.90
10060;BME280;5069;49.306;8.636;2022-08-21T05:29:03;100560.94;;;18.06;70.99
10060;BME280;5069;49.306;8.636;2022-08-21T05:32:11;100558.94;;;18.24;68.96
10060;BME280;5069;49.306;8.636;2022-08-21T05:35:13;100555.34;;;18.25;68.92
10060;BME280;5069;49.306;8.636;2022-08-21T05:38:15;100553.69;;;18.23;70.08
10060;BME280;5069;49.306;8.636;2022-08-21T05:41:18;100546.00;;;18.32;70.41
10060;BME280;5069;49.306;8.636;2022-08-21T05:44:20;100545.41;;;18.41;69.28
10060;BME280;5069;49.306;8.636;2022-08-21T05:47:22;100561.91;;;18.48;69.26
10060;BME280;5069;49.306;8.636;2022-08-21T05:50:24;100553.44;;;18.55;70.12
10060;BME280;5069;49.306;8.636;2022-08-21T05:53:33;100552.19;;;18.61;70.07
10060;BME280;5069;49.306;8.636;2022-08-21T05:56:34;100546.47;;;18.67;70.35
10060;BME280;5069;49.306;8.636;2022-08-21T05:59:36;100555.56;;;18.77;70.27
10060;BME280;5069;49.306;8.636;2022-08-21T06:02:39;100554.88;;;18.88;69.83
10060;BME280;5069;49.306;8.636;2022-08-21T06:05:42;100559.59;;;18.97;69.79
10060;BME280;5069;49.306;8.636;2022-08-21T06:08:43;100556.84;;;18.98;69.85
10060;BME280;5069;49.306;8.636;2022-08-21T06:11:45;100566.09;;;19.07;69.87
10060;BME280;5069;49.306;8.636;2022-08-21T06:14:47;100561.13;;;19.01;69.98
10060;BME280;5069;49.306;8.636;2022-08-21T06:17:48;100558.47;;;19.01;69.75
10060;BME280;5069;49.306;8.636;2022-08-21T06:20:50;100567.03;;;19.06;70.50
10060;BME280;5069;49.306;8.636;2022-08-21T06:23:51;100569.03;;;19.03;69.40
10060;BME280;5069;49.306;8.636;2022-08-21T06:26:53;100568.94;;;19.04;70.39
10060;BME280;5069;49.306;8.636;2022-08-21T06:29:55;100568.00;;;19.05;69.69
10060;BME280;5069;49.306;8.636;2022-08-21T06:32:58;100565.28;;;19.19;69.45
10060;BME280;5069;49.306;8.636;2022-08-21T06:36:00;100561.22;;;19.26;69.22
10060;BME280;5069;49.306;8.636;2022-08-21T06:39:02;100565.91;;;19.50;67.91
10060;BME280;5069;49.306;8.636;2022-08-21T06:42:24;100565.28;;;19.19;70.01
10060;BME280;5069;49.306;8.636;2022-08-21T06:45:29;100569.13;;;19.28;69.88
10060;BME280;5069;49.306;8.636;2022-08-21T06:48:32;100569.53;;;19.49;68.27
10060;BME280;5069;49.306;8.636;2022-08-21T06:51:35;100569.66;;;19.60;67.47
10060;BME280;5069;49.306;8.636;2022-08-21T06:54:37;100584.22;;;19.56;67.84
10060;BME280;5069;49.306;8.636;2022-08-21T06:57:39;100573.34;;;19.84;66.94
10060;BME280;5069;49.306;8.636;2022-08-21T07:00:49;100572.25;;;19.99;65.74
10060;BME280;5069;49.306;8.636;2022-08-21T07:03:52;100565.00;;;20.14;65.91
10060;BME280;5069;49.306;8.636;2022-08-21T07:06:54;100565.44;;;20.33;64.90
10060;BME280;5069;49.306;8.636;2022-08-21T07:09:55;100566.59;;;20.42;64.62
10060;BME280;5069;49.306;8.636;2022-08-21T07:12:57;100560.88;;;20.59;63.69
10060;BME280;5069;49.306;8.636;2022-08-21T07:16:01;100561.25;;;20.78;62.90
10060;BME280;5069;49.306;8.636;2022-08-21T07:19:04;100556.28;;;20.85;61.88
10060;BME280;5069;49.306;8.636;2022-08-21T07:22:06;100546.50;;;20.73;60.81
10060;BME280;5069;49.306;8.636;2022-08-21T07:25:08;100552.91;;;20.70;61.33
10060;BME280;5069;49.306;8.636;2022-08-21T07:28:10;100550.88;;;20.97;60.50
10060;BME280;5069;49.306;8.636;2022-08-21T07:31:14;100545.16;;;21.15;59.12
10060;BME280;5069;49.306;8.636;2022-08-21T07:34:16;100542.69;;;21.12;58.93
10060;BME280;5069;49.306;8.636;2022-08-21T07:37:17;100551.56;;;21.36;57.81
10060;BME280;5069;49.306;8.636;2022-08-21T07:40:20;100549.56;;;21.51;57.95
10060;BME280;5069;49.306;8.636;2022-08-21T07:43:22;100542.00;;;21.56;56.94
10060;BME280;5069;49.306;8.636;2022-08-21T07:46:24;100536.59;;;21.79;55.71
10060;BME280;5069;49.306;8.636;2022-08-21T07:49:27;100534.88;;;21.90;55.40
10060;BME280;5069;49.306;8.636;2022-08-21T07:52:29;100538.84;;;21.97;54.85
10060;BME280;5069;49.306;8.636;2022-08-21T07:55:32;100537.72;;;22.10;55.08
10060;BME280;5069;49.306;8.636;2022-08-21T07:58:33;100538.84;;;22.30;53.63
10060;BME280;5069;49.306;8.636;2022-08-21T08:01:35;100536.66;;;22.13;54.27
10060;BME280;5069;49.306;8.636;2022-08-21T08:04:37;100537.88;;;22.09;54.63
10060;BME280;5069;49.306;8.636;2022-08-21T08:07:51;100519.06;;;22.53;54.17
10060;BME280;5069;49.306;8.636;2022-08-21T08:10:53;100523.00;;;22.92;52.58
10060;BME280;5069;49.306;8.636;2022-08-21T08:13:57;100525.63;;;23.15;51.38
10060;BME280;5069;49.306;8.636;2022-08-21T08:17:00;100525.44;;;23.27;51.49
10060;BME280;5069;49.306;8.636;2022-08-21T08:20:07;100529.28;;;23.45;50.61
10060;BME280;5069;49.306;8.636;2022-08-21T08:23:11;100520.41;;;23.75;50.29
10060;BME280;5069;49.306;8.636;2022-08-21T08:26:12;100516.75;;;23.76;49.29
10060;BME280;5069;49.306;8.636;2022-08-21T08:29:15;100518.72;;;23.54;49.75
10060;BME280;5069;49.306;8.636;2022-08-21T08:32:17;100511.22;;;23.36;50.86
10060;BME280;5069;49.306;8.636;2022-08-21T08:35:19;100513.91;;;23.36;50.28
10060;BME280;5069;49.306;8.636;2022-08-21T08:38:25;100507.38;;;23.50;50.38
10060;BME280;5069;49.306;8.636;2022-08-21T08:41:27;100500.94;;;23.83;49.88
10060;BME280;5069;49.306;8.636;2022-08-21T08:44:31;100486.28;;;24.06;48.43
10060;BME280;5069;49.306;8.636;2022-08-21T08:47:36;100493.13;;;24.10;48.33
10060;BME280;5069;49.306;8.636;2022-08-21T08:50:47;100488.03;;;24.17;47.52
10060;BME280;5069;49.306;8.636;2022-08-21T08:53:55;100489.72;;;24.08;48.70
10060;BME280;5069;49.306;8.636;2022-08-21T08:57:01;100492.44;;;24.48;46.88
10060;BME280;5069;49.306;8.636;2022-08-21T09:00:08;100485.97;;;24.70;45.96
10060;BME280;5069;49.306;8.636;2022-08-21T09:03:11;100486.72;;;24.91;45.84
10060;BME280;5069;49.306;8.636;2022-08-21T09:06:42;100477.31;;;24.76;46.47
10060;BME280;5069;49.306;8.636;2022-08-21T09:16:39;100465.00;;;25.02;45.14
10060;BME280;5069;49.306;8.636;2022-08-21T09:20:32;100453.38;;;24.92;45.50
10060;BME280;5069;49.306;8.636;2022-08-21T09:23:35;100462.72;;;25.27;44.65
10060;BME280;5069;49.306;8.636;2022-08-21T09:27:02;100449.22;;;25.27;44.19
10060;BME280;5069;49.306;8.636;2022-08-21T09:30:08;100445.88;;;25.71;43.85
10060;BME280;5069;49.306;8.636;2022-08-21T09:33:12;100435.88;;;25.91;44.11
10060;BME280;5069;49.306;8.636;2022-08-21T09:36:24;100441.22;;;26.01;42.36
10060;BME280;5069;49.306;8.636;2022-08-21T09:39:29;100446.72;;;26.09;41.92
10060;BME280;5069;49.306;8.636;2022-08-21T09:42:31;100433.63;;;26.14;42.56
10060;BME280;5069;49.306;8.636;2022-08-21T09:45:34;100442.44;;;26.43;40.94
10060;BME280;5069;49.306;8.636;2022-08-21T09:48:44;100437.66;;;26.37;41.28
10060;BME280;5069;49.306;8.636;2022-08-21T09:51:51;100440.78;;;26.32;41.12
10060;BME280;5069;49.306;8.636;2022-08-21T09:54:55;100438.72;;;26.44;40.66
10060;BME280;5069;49.306;8.636;2022-08-21T09:57:57;100431.81;;;26.59;41.03
10060;BME280;5069;49.306;8.636;2022-08-21T10:01:01;100437.69;;;26.72;40.10
10060;BME280;5069;49.306;8.636;2022-08-21T10:04:07;100439.41;;;27.09;39.58
10060;BME280;5069;49.306;8.636;2022-08-21T10:07:13;100437.19;;;27.30;39.29
10060;BME280;5069;49.306;8.636;2022-08-21T10:10:22;100431.16;;;27.36;38.78
10060;BME280;5069;49.306;8.636;2022-08-21T10:13:37;100427.38;;;27.29;38.22
10060;BME280;5069;49.306;8.636;2022-08-21T10:16:47;100425.16;;;27.25;38.14
10060;BME280;5069;49.306;8.636;2022-08-21T10:20:12;100417.69;;;27.44;37.72
10060;BME280;5069;49.306;8.636;2022-08-21T10:30:06;100414.09;;;27.62;36.44
10060;BME280;5069;49.306;8.636;2022-08-21T10:33:13;100411.19;;;27.37;36.61
10060;BME280;5069;49.306;8.636;2022-08-21T10:36:32;100415.97;;;27.43;36.79
10060;BME280;5069;49.306;8.636;2022-08-21T10:40:29;100410.28;;;27.03;37.43
10060;BME280;5069;49.306;8.636;2022-08-21T10:43:30;100402.81;;;27.48;37.08
10060;BME280;5069;49.306;8.636;2022-08-21T10:47:02;100398.66;;;27.88;35.67
10060;BME280;5069;49.306;8.636;2022-08-21T10:56:43;100388.03;;;27.94;34.84
10060;BME280;5069;49.306;8.636;2022-08-21T10:59:57;100397.13;;;28.19;35.11
10060;BME280;5069;49.306;8.636;2022-08-21T11:06:11;100403.97;;;27.46;34.83
10060;BME280;5069;49.306;8.636;2022-08-21T11:09:18;100396.66;;;27.90;35.14
10060;BME280;5069;49.306;8.636;2022-08-21T11:12:27;100385.66;;;28.00;35.26
10060;BME280;5069;49.306;8.636;2022-08-21T11:15:45;100392.53;;;28.20;33.98
10060;BME280;5069;49.306;8.636;2022-08-21T11:18:54;100382.53;;;28.20;32.32
10060;BME280;5069;49.306;8.636;2022-08-21T11:22:11;100376.19;;;27.95;33.31
10060;BME280;5069;49.306;8.636;2022-08-21T11:25:26;100376.81;;;28.23;32.90
10060;BME280;5069;49.306;8.636;2022-08-21T11:28:43;100371.91;;;28.43;32.68
10060;BME280;5069;49.306;8.636;2022-08-21T11:35:33;100371.78;;;28.69;32.90
10060;BME280;5069;49.306;8.636;2022-08-21T11:38:46;100367.97;;;28.21;32.11
10060;BME280;5069;49.306;8.636;2022-08-21T11:42:25;100360.19;;;28.26;33.07
10060;BME280;5069;49.306;8.636;2022-08-21T11:45:45;100365.84;;;28.65;30.92
10060;BME280;5069;49.306;8.636;2022-08-21T11:48:59;100363.78;;;28.43;30.91
10060;BME280;5069;49.306;8.636;2022-08-21T11:52:11;100357.13;;;28.21;31.97
10060;BME280;5069;49.306;8.636;2022-08-21T11:55:31;100360.88;;;28.36;31.57
10060;BME280;5069;49.306;8.636;2022-08-21T11:58:41;100352.13;;;28.67;31.08
10060;BME280;5069;49.306;8.636;2022-08-21T12:01:44;100353.81;;;28.60;30.68
10060;BME280;5069;49.306;8.636;2022-08-21T12:05:03;100348.38;;;28.35;30.26
10060;BME280;5069;49.306;8.636;2022-08-21T12:14:18;100339.91;;;28.47;31.35
10060;BME280;5069;49.306;8.636;2022-08-21T12:17:22;100339.75;;;28.72;30.98
10060;BME280;5069;49.306;8.636;2022-08-21T12:20:56;100340.97;;;28.86;30.82
10060;BME280;5069;49.306;8.636;2022-08-21T12:27:29;100334.88;;;28.92;29.78
10060;BME280;5069;49.306;8.636;2022-08-21T12:30:38;100326.53;;;28.77;30.24
10060;BME280;5069;49.306;8.636;2022-08-21T12:33:40;100326.69;;;29.00;29.81
10060;BME280;5069;49.306;8.636;2022-08-21T12:36:45;100326.50;;;29.18;29.73
10060;BME280;5069;49.306;8.636;2022-08-21T12:39:51;100320.19;;;29.42;28.76
10060;BME280;5069;49.306;8.636;2022-08-21T12:42:55;100314.06;;;29.56;27.77
10060;BME280;5069;49.306;8.636;2022-08-21T12:45:59;100307.78;;;29.86;27.69
10060;BME280;5069;49.306;8.636;2022-08-21T12:49:08;100300.31;;;29.88;27.52
10060;BME280;5069;49.306;8.636;2022-08-21T12:52:22;100309.09;;;29.98;27.37
10060;BME280;5069;49.306;8.636;2022-08-21T12:55:30;100303.53;;;29.92;26.51
10060;BME280;5069;49.306;8.636;2022-08-21T12:58:32;100303.25;;;30.10;26.84
10060;BME280;5069;49.306;8.636;2022-08-21T13:01:49;100298.13;;;30.15;25.71
10060;BME280;5069;49.306;8.636;2022-08-21T13:04:53;100307.72;;;30.03;25.27
10060;BME280;5069;49.306;8.636;2022-08-21T13:07:56;100301.31;;;29.95;25.78
10060;BME280;5069;49.306;8.636;2022-08-21T13:11:05;100298.44;;;30.20;25.99
10060;BME280;5069;49.306;8.636;2022-08-21T13:14:28;100299.56;;;30.56;26.52
10060;BME280;5069;49.306;8.636;2022-08-21T13:17:35;100299.75;;;30.55;26.22
10060;BME280;5069;49.306;8.636;2022-08-21T13:20:39;100306.16;;;30.08;26.11
10060;BME280;5069;49.306;8.636;2022-08-21T13:23:44;100297.28;;;29.83;26.32
10060;BME280;5069;49.306;8.636;2022-08-21T13:26:50;100301.22;;;30.12;26.47
10060;BME280;5069;49.306;8.636;2022-08-21T13:30:20;100293.09;;;30.04;25.91
10060;BME280;5069;49.306;8.636;2022-08-21T13:33:25;100298.38;;;30.28;25.85
10060;BME280;5069;49.306;8.636;2022-08-21T13:36:41;100295.81;;;30.04;25.59
10060;BME280;5069;49.306;8.636;2022-08-21T13:39:49;100294.50;;;30.00;26.02
10060;BME280;5069;49.306;8.636;2022-08-21T13:42:51;100293.16;;;30.49;24.88
10060;BME280;5069;49.306;8.636;2022-08-21T13:45:54;100291.13;;;30.43;24.86
10060;BME280;5069;49.306;8.636;2022-08-21T13:48:58;100289.88;;;30.54;25.19
10060;BME280;5069;49.306;8.636;2022-08-21T13:52:00;100285.03;;;30.18;25.18
10060;BME280;5069;49.306;8.636;2022-08-21T13:55:12;100286.13;;;30.55;24.69
10060;BME280;5069;49.306;8.636;2022-08-21T13:58:28;100278.50;;;30.73;23.89
10060;BME280;5069;49.306;8.636;2022-08-21T14:01:36;100287.16;;;30.91;23.30
10060;BME280;5069;49.306;8.636;2022-08-21T14:04:54;100276.94;;;30.93;23.60
10060;BME280;5069;49.306;8.636;2022-08-21T14:08:14;100287.41;;;30.82;22.22
10060;BME280;5069;49.306;8.636;2022-08-21T14:11:21;100279.91;;;30.84;22.58
10060;BME280;5069;49.306;8.636;2022-08-21T14:14:26;100276.81;;;30.72;23.06
10060;BME280;5069;49.306;8.636;2022-08-21T14:17:38;100275.25;;;30.92;22.58
10060;BME280;5069;49.306;8.636;2022-08-21T14:20:43;100262.22;;;31.02;22.47
10060;BME280;5069;49.306;8.636;2022-08-21T14:23:46;100251.50;;;30.49;22.72
10060;BME280;5069;49.306;8.636;2022-08-21T14:26:56;100248.78;;;31.01;22.86
10060;BME280;5069;49.306;8.636;2022-08-21T14:30:12;100244.31;;;31.37;22.40
10060;BME280;5069;49.306;8.636;2022-08-21T14:33:23;100250.97;;;31.49;21.84
10060;BME280;5069;49.306;8.636;2022-08-21T14:36:26;100248.53;;;31.25;21.88
10060;BME280;5069;49.306;8.636;2022-08-21T14:39:28;100240.19;;;31.12;23.61
10060;BME280;5069;49.306;8.636;2022-08-21T14:42:29;100242.81;;;31.20;23.38
10060;BME280;5069;49.306;8.636;2022-08-21T14:45:31;100236.69;;;31.47;23.41
10060;BME280;5069;49.306;8.636;2022-08-21T14:48:32;100241.31;;;31.32;24.21
10060;BME280;5069;49.306;8.636;2022-08-21T14:51:34;100232.66;;;31.29;24.28
10060;BME280;5069;49.306;8.636;2022-08-21T14:54:35;100226.44;;;31.49;23.67
10060;BME280;5069;49.306;8.636;2022-08-21T14:57:37;100225.84;;;31.69;22.77
10060;BME280;5069;49.306;8.636;2022-08-21T15:00:39;100225.09;;;31.75;23.13
10060;BME280;5069;49.306;8.636;2022-08-21T15:03:41;100224.78;;;31.84;23.07
10060;BME280;5069;49.306;8.636;2022-08-21T15:06:42;100223.91;;;31.63;23.78
10060;BME280;5069;49.306;8.636;2022-08-21T15:09:44;100234.03;;;32.05;23.04
10060;BME280;5069;49.306;8.636;2022-08-21T15:12:46;100221.66;;;32.23;23.10
10060;BME280;5069;49.306;8.636;2022-08-21T15:15:49;100222.38;;;31.75;22.93
10060;BME280;5069;49.306;8.636;2022-08-21T15:18:53;100220.16;;;31.85;22.76
10060;BME280;5069;49.306;8.636;2022-08-21T15:21:55;100217.88;;;31.67;22.92
10060;BME280;5069;49.306;8.636;2022-08-21T15:24:57;100219.13;;;31.65;22.77
10060;BME280;5069;49.306;8.636;2022-08-21T15:27:59;100210.28;;;31.63;22.61
10060;BME280;5069;49.306;8.636;2022-08-21T15:31:00;100207.84;;;31.53;22.81
10060;BME280;5069;49.306;8.636;2022-08-21T15:34:02;100208.06;;;31.22;23.54
10060;BME280;5069;49.306;8.636;2022-08-21T15:37:04;100210.28;;;31.33;23.36
10060;BME280;5069;49.306;8.636;2022-08-21T15:40:09;100204.41;;;31.15;23.64
10060;BME280;5069;49.306;8.636;2022-08-21T15:43:21;100208.09;;;30.55;24.19
10060;BME280;5069;49.306;8.636;2022-08-21T15:46:31;100207.06;;;30.56;24.19
10060;BME280;5069;49.306;8.636;2022-08-21T15:49:32;100201.94;;;30.91;24.50
10060;BME280;5069;49.306;8.636;2022-08-21T15:52:34;100198.47;;;31.41;23.92
10060;BME280;5069;49.306;8.636;2022-08-21T15:55:36;100201.06;;;31.64;23.96
10060;BME280;5069;49.306;8.636;2022-08-21T15:58:38;100194.59;;;31.86;23.78
10060;BME280;5069;49.306;8.636;2022-08-21T16:01:39;100190.03;;;32.29;23.23
10060;BME280;5069;49.306;8.636;2022-08-21T16:04:45;100188.53;;;32.54;22.93
10060;BME280;5069;49.306;8.636;2022-08-21T16:07:48;100182.94;;;32.34;23.50
10060;BME280;5069;49.306;8.636;2022-08-21T16:10:51;100192.81;;;32.14;23.47
10060;BME280;5069;49.306;8.636;2022-08-21T16:13:53;100196.63;;;31.77;24.05
10060;BME280;5069;49.306;8.636;2022-08-21T16:16:57;100193.06;;;31.62;24.25
10060;BME280;5069;49.306;8.636;2022-08-21T16:20:01;100190.06;;;31.93;24.46
10060;BME280;5069;49.306;8.636;2022-08-21T16:23:04;100189.13;;;31.65;25.11
10060;BME280;5069;49.306;8.636;2022-08-21T16:26:07;100188.22;;;31.43;25.59
10060;BME280;5069;49.306;8.636;2022-08-21T16:29:15;100180.91;;;31.29;25.72
10060;BME280;5069;49.306;8.636;2022-08-21T16:32:17;100181.28;;;30.96;26.60
10060;BME280;5069;49.306;8.636;2022-08-21T16:35:19;100179.31;;;30.75;26.91
10060;BME280;5069;49.306;8.636;2022-08-21T16:38:22;100169.25;;;30.61;27.07
10060;BME280;5069;49.306;8.636;2022-08-21T16:41:31;100167.00;;;30.13;27.21
10060;BME280;5069;49.306;8.636;2022-08-21T16:44:33;100166.06;;;29.97;27.88
10060;BME280;5069;49.306;8.636;2022-08-21T16:47:37;100168.16;;;29.65;28.93
10060;BME280;5069;49.306;8.636;2022-08-21T16:50:39;100171.44;;;29.52;29.37
10060;BME280;5069;49.306;8.636;2022-08-21T16:53:41;100167.09;;;29.43;29.39
10060;BME280;5069;49.306;8.636;2022-08-21T16:56:44;100166.63;;;29.31;28.89
10060;BME280;5069;49.306;8.636;2022-08-21T16:59:48;100165.84;;;29.14;29.47